sensor_id;sensor_type;location;lat;lon;timestamp;P1;durP1;ratioP1;P2;durP2;ratioP2
46563;SDS011;32291;52.010;4.446;2023-05-10T00:00:20;69.03;;;41.97;;
46563;SDS011;32291;52.010;4.446;2023-05-10T00:01:23;73.20;;;44.65;;
46563;SDS011;32291;52.010;4.446;2023-05-10T00:02:25;68.85;;;43.20;;
46563;SDS011;32291;52.010;4.446;2023-05-10T00:03:27;69.25;;;42.85;;
46563;SDS011;32291;52.010;4.446;2023-05-10T00:04:28;73.00;;;45.40;;
46563;SDS011;32291;52.010;4.446;2023-05-10T00:05:30;74.38;;;44.95;;
46563;SDS011;32291;52.010;4.446;2023-05-10T00:06:33;70.82;;;42.67;;
46563;SDS011;32291;52.010;4.446;2023-05-10T00:07:35;73.10;;;44.83;;
46563;SDS011;32291;52.010;4.446;2023-05-10T00:08:36;72.75;;;43.97;;
46563;SDS011;32291;52.010;4.446;2023-05-10T00:09:39;74.47;;;45.80;;
46563;SDS011;32291;52.010;4.446;2023-05-10T00:10:41;76.45;;;46.30;;
46563;SDS011;32291;52.010;4.446;2023-05-10T00:11:42;76.15;;;45.33;;
46563;SDS011;32291;52.010;4.446;2023-05-10T00:12:44;84.57;;;47.47;;
46563;SDS011;32291;52.010;4.446;2023-05-10T00:13:45;77.93;;;46.33;;
46563;SDS011;32291;52.010;4.446;2023-05-10T00:14:48;75.20;;;45.70;;
46563;SDS011;32291;52.010;4.446;2023-05-10T00:15:49;74.95;;;45.45;;
46563;SDS011;32291;52.010;4.446;2023-05-10T00:16:51;77.07;;;48.40;;
46563;SDS011;32291;52.010;4.446;2023-05-10T00:17:53;72.97;;;45.97;;
46563;SDS011;32291;52.010;4.446;2023-05-10T00:18:54;70.82;;;45.60;;
46563;SDS011;32291;52.010;4.446;2023-05-10T00:19:56;71.00;;;44.33;;
46563;SDS011;32291;52.010;4.446;2023-05-10T00:20:58;80.30;;;48.33;;
46563;SDS011;32291;52.010;4.446;2023-05-10T00:22:00;77.90;;;45.80;;
46563;SDS011;32291;52.010;4.446;2023-05-10T00:23:02;85.00;;;49.17;;
46563;SDS011;32291;52.010;4.446;2023-05-10T00:24:04;87.47;;;51.15;;
46563;SDS011;32291;52.010;4.446;2023-05-10T00:25:06;88.18;;;50.88;;
46563;SDS011;32291;52.010;4.446;2023-05-10T00:26:09;83.35;;;50.83;;
46563;SDS011;32291;52.010;4.446;2023-05-10T00:27:10;82.68;;;49.25;;
46563;SDS011;32291;52.010;4.446;2023-05-10T00:28:13;83.07;;;51.00;;
46563;SDS011;32291;52.010;4.446;2023-05-10T00:29:14;84.78;;;51.00;;
46563;SDS011;32291;52.010;4.446;2023-05-10T00:30:16;78.00;;;48.55;;
46563;SDS011;32291;52.010;4.446;2023-05-10T00:31:17;88.82;;;52.22;;
46563;SDS011;32291;52.010;4.446;2023-05-10T00:32:19;80.10;;;51.45;;
46563;SDS011;32291;52.010;4.446;2023-05-10T00:33:21;85.07;;;51.97;;
46563;SDS011;32291;52.010;4.446;2023-05-10T00:34:23;83.47;;;50.65;;
46563;SDS011;32291;52.010;4.446;2023-05-10T00:35:26;87.88;;;51.90;;
46563;SDS011;32291;52.010;4.446;2023-05-10T00:36:28;94.05;;;52.75;;
46563;SDS011;32291;52.010;4.446;2023-05-10T00:37:30;86.40;;;53.22;;
46563;SDS011;32291;52.010;4.446;2023-05-10T00:38:31;83.60;;;51.67;;
46563;SDS011;32291;52.010;4.446;2023-05-10T00:39:34;100.60;;;53.17;;
46563;SDS011;32291;52.010;4.446;2023-05-10T00:40:35;90.15;;;52.92;;
46563;SDS011;32291;52.010;4.446;2023-05-10T00:41:38;89.18;;;53.83;;
46563;SDS011;32291;52.010;4.446;2023-05-10T00:42:40;91.57;;;54.17;;
46563;SDS011;32291;52.010;4.446;2023-05-10T00:43:41;106.93;;;56.28;;
46563;SDS011;32291;52.010;4.446;2023-05-10T00:44:44;110.22;;;58.42;;
46563;SDS011;32291;52.010;4.446;2023-05-10T00:45:45;111.35;;;54.45;;
46563;SDS011;32291;52.010;4.446;2023-05-10T00:46:48;121.65;;;54.40;;
46563;SDS011;32291;52.010;4.446;2023-05-10T00:47:50;160.48;;;53.40;;
46563;SDS011;32291;52.010;4.446;2023-05-10T00:48:55;152.73;;;52.63;;
46563;SDS011;32291;52.010;4.446;2023-05-10T00:49:58;146.48;;;50.83;;
46563;SDS011;32291;52.010;4.446;2023-05-10T00:51:01;230.48;;;52.78;;
46563;SDS011;32291;52.010;4.446;2023-05-10T00:52:04;191.50;;;51.28;;
46563;SDS011;32291;52.010;4.446;2023-05-10T00:53:05;154.40;;;49.17;;
46563;SDS011;32291;52.010;4.446;2023-05-10T00:54:09;165.80;;;48.20;;
46563;SDS011;32291;52.010;4.446;2023-05-10T00:55:14;176.70;;;48.20;;
46563;SDS011;32291;52.010;4.446;2023-05-10T00:56:16;204.73;;;49.13;;
46563;SDS011;32291;52.010;4.446;2023-05-10T00:57:19;189.93;;;45.63;;
46563;SDS011;32291;52.010;4.446;2023-05-10T00:58:21;198.48;;;45.53;;
46563;SDS011;32291;52.010;4.446;2023-05-10T00:59:24;161.52;;;44.75;;
46563;SDS011;32291;52.010;4.446;2023-05-10T01:00:26;202.65;;;44.25;;
46563;SDS011;32291;52.010;4.446;2023-05-10T01:01:28;132.02;;;42.17;;
46563;SDS011;32291;52.010;4.446;2023-05-10T01:02:30;152.10;;;41.45;;
46563;SDS011;32291;52.010;4.446;2023-05-10T01:03:35;186.32;;;43.65;;
46563;SDS011;32291;52.010;4.446;2023-05-10T01:04:38;161.68;;;41.80;;
46563;SDS011;32291;52.010;4.446;2023-05-10T01:05:40;112.72;;;39.22;;
46563;SDS011;32291;52.010;4.446;2023-05-10T01:06:42;130.25;;;41.55;;
46563;SDS011;32291;52.010;4.446;2023-05-10T01:07:44;115.05;;;40.15;;
46563;SDS011;32291;52.010;4.446;2023-05-10T01:08:46;102.38;;;40.45;;
46563;SDS011;32291;52.010;4.446;2023-05-10T01:09:48;112.82;;;42.30;;
46563;SDS011;32291;52.010;4.446;2023-05-10T01:10:49;115.55;;;42.88;;
46563;SDS011;32291;52.010;4.446;2023-05-10T01:11:52;105.68;;;41.53;;
46563;SDS011;32291;52.010;4.446;2023-05-10T01:12:55;109.90;;;44.17;;
46563;SDS011;32291;52.010;4.446;2023-05-10T01:13:57;121.13;;;43.53;;
46563;SDS011;32291;52.010;4.446;2023-05-10T01:15:00;116.85;;;42.38;;
46563;SDS011;32291;52.010;4.446;2023-05-10T01:16:03;112.38;;;42.55;;
46563;SDS011;32291;52.010;4.446;2023-05-10T01:17:07;104.28;;;41.85;;
46563;SDS011;32291;52.010;4.446;2023-05-10T01:18:11;108.05;;;42.05;;
46563;SDS011;32291;52.010;4.446;2023-05-10T01:19:17;103.72;;;42.33;;
46563;SDS011;32291;52.010;4.446;2023-05-10T01:20:22;89.75;;;40.08;;
46563;SDS011;32291;52.010;4.446;2023-05-10T01:24:45;89.22;;;39.08;;
46563;SDS011;32291;52.010;4.446;2023-05-10T01:32:36;82.80;;;37.88;;
46563;SDS011;32291;52.010;4.446;2023-05-10T01:34:07;73.88;;;37.22;;
46563;SDS011;32291;52.010;4.446;2023-05-10T01:35:30;83.97;;;40.10;;
46563;SDS011;32291;52.010;4.446;2023-05-10T01:37:10;87.03;;;39.38;;
46563;SDS011;32291;52.010;4.446;2023-05-10T01:40:06;82.45;;;39.53;;
46563;SDS011;32291;52.010;4.446;2023-05-10T01:42:59;81.13;;;41.85;;
46563;SDS011;32291;52.010;4.446;2023-05-10T01:45:42;76.05;;;40.88;;
46563;SDS011;32291;52.010;4.446;2023-05-10T01:47:15;83.47;;;41.15;;
46563;SDS011;32291;52.010;4.446;2023-05-10T01:48:24;89.18;;;42.67;;
46563;SDS011;32291;52.010;4.446;2023-05-10T01:49:31;77.63;;;39.90;;
46563;SDS011;32291;52.010;4.446;2023-05-10T01:50:41;87.32;;;39.53;;
46563;SDS011;32291;52.010;4.446;2023-05-10T01:51:48;79.38;;;39.95;;
46563;SDS011;32291;52.010;4.446;2023-05-10T01:52:58;81.82;;;42.88;;
46563;SDS011;32291;52.010;4.446;2023-05-10T01:54:03;80.45;;;38.88;;
46563;SDS011;32291;52.010;4.446;2023-05-10T01:55:08;73.65;;;38.50;;
46563;SDS011;32291;52.010;4.446;2023-05-10T01:56:17;72.50;;;38.72;;
46563;SDS011;32291;52.010;4.446;2023-05-10T01:57:27;80.68;;;40.38;;
46563;SDS011;32291;52.010;4.446;2023-05-10T01:58:35;76.05;;;36.88;;
46563;SDS011;32291;52.010;4.446;2023-05-10T01:59:40;76.78;;;36.92;;
46563;SDS011;32291;52.010;4.446;2023-05-10T02:00:50;65.93;;;36.65;;
46563;SDS011;32291;52.010;4.446;2023-05-10T02:01:55;78.43;;;38.83;;
46563;SDS011;32291;52.010;4.446;2023-05-10T02:03:04;79.82;;;38.28;;
46563;SDS011;32291;52.010;4.446;2023-05-10T02:04:09;74.15;;;37.25;;
46563;SDS011;32291;52.010;4.446;2023-05-10T02:05:16;71.15;;;37.75;;
46563;SDS011;32291;52.010;4.446;2023-05-10T02:06:20;65.55;;;36.45;;
46563;SDS011;32291;52.010;4.446;2023-05-10T02:07:24;75.50;;;39.60;;
46563;SDS011;32291;52.010;4.446;2023-05-10T02:08:29;72.78;;;37.70;;
46563;SDS011;32291;52.010;4.446;2023-05-10T02:09:35;67.40;;;38.35;;
46563;SDS011;32291;52.010;4.446;2023-05-10T02:10:39;72.05;;;39.47;;
46563;SDS011;32291;52.010;4.446;2023-05-10T02:11:43;75.90;;;37.85;;
46563;SDS011;32291;52.010;4.446;2023-05-10T02:12:46;72.00;;;39.05;;
46563;SDS011;32291;52.010;4.446;2023-05-10T02:13:50;67.45;;;38.38;;
46563;SDS011;32291;52.010;4.446;2023-05-10T02:14:55;66.97;;;37.47;;
46563;SDS011;32291;52.010;4.446;2023-05-10T02:16:03;67.07;;;37.75;;
46563;SDS011;32291;52.010;4.446;2023-05-10T02:17:08;65.38;;;37.75;;
46563;SDS011;32291;52.010;4.446;2023-05-10T02:18:11;72.57;;;38.72;;
46563;SDS011;32291;52.010;4.446;2023-05-10T02:19:14;69.45;;;36.92;;
46563;SDS011;32291;52.010;4.446;2023-05-10T02:20:19;64.30;;;37.28;;
46563;SDS011;32291;52.010;4.446;2023-05-10T02:21:22;70.95;;;36.10;;
46563;SDS011;32291;52.010;4.446;2023-05-10T02:22:27;69.30;;;38.03;;
46563;SDS011;32291;52.010;4.446;2023-05-10T02:23:29;62.67;;;37.90;;
46563;SDS011;32291;52.010;4.446;2023-05-10T02:24:32;68.03;;;39.50;;
46563;SDS011;32291;52.010;4.446;2023-05-10T02:25:37;68.90;;;38.08;;
46563;SDS011;32291;52.010;4.446;2023-05-10T02:26:40;67.38;;;37.75;;
46563;SDS011;32291;52.010;4.446;2023-05-10T02:27:43;68.65;;;38.40;;
46563;SDS011;32291;52.010;4.446;2023-05-10T02:28:48;68.78;;;38.47;;
46563;SDS011;32291;52.010;4.446;2023-05-10T02:29:52;64.43;;;37.10;;
46563;SDS011;32291;52.010;4.446;2023-05-10T02:30:55;60.80;;;39.35;;
46563;SDS011;32291;52.010;4.446;2023-05-10T02:31:58;68.53;;;38.63;;
46563;SDS011;32291;52.010;4.446;2023-05-10T02:33:01;63.50;;;38.35;;
46563;SDS011;32291;52.010;4.446;2023-05-10T02:34:06;67.05;;;39.08;;
46563;SDS011;32291;52.010;4.446;2023-05-10T02:35:09;63.97;;;37.70;;
46563;SDS011;32291;52.010;4.446;2023-05-10T02:36:13;65.38;;;40.03;;
46563;SDS011;32291;52.010;4.446;2023-05-10T02:37:16;59.92;;;38.95;;
46563;SDS011;32291;52.010;4.446;2023-05-10T02:38:22;65.35;;;39.95;;
46563;SDS011;32291;52.010;4.446;2023-05-10T02:39:26;53.92;;;38.88;;
46563;SDS011;32291;52.010;4.446;2023-05-10T02:40:31;61.15;;;36.47;;
46563;SDS011;32291;52.010;4.446;2023-05-10T02:41:35;57.95;;;35.75;;
46563;SDS011;32291;52.010;4.446;2023-05-10T02:42:41;49.53;;;35.88;;
46563;SDS011;32291;52.010;4.446;2023-05-10T02:43:46;53.08;;;37.05;;
46563;SDS011;32291;52.010;4.446;2023-05-10T02:44:53;55.67;;;36.47;;
46563;SDS011;32291;52.010;4.446;2023-05-10T02:46:02;55.78;;;36.90;;
46563;SDS011;32291;52.010;4.446;2023-05-10T02:47:04;59.08;;;37.75;;
46563;SDS011;32291;52.010;4.446;2023-05-10T02:48:06;57.47;;;38.17;;
46563;SDS011;32291;52.010;4.446;2023-05-10T02:49:07;60.67;;;39.30;;
46563;SDS011;32291;52.010;4.446;2023-05-10T02:50:09;55.13;;;36.67;;
46563;SDS011;32291;52.010;4.446;2023-05-10T02:51:12;56.88;;;38.28;;
46563;SDS011;32291;52.010;4.446;2023-05-10T02:52:21;49.10;;;35.33;;
46563;SDS011;32291;52.010;4.446;2023-05-10T02:53:41;47.92;;;33.63;;
46563;SDS011;32291;52.010;4.446;2023-05-10T02:54:48;51.42;;;37.47;;
46563;SDS011;32291;52.010;4.446;2023-05-10T02:55:56;47.28;;;35.17;;
46563;SDS011;32291;52.010;4.446;2023-05-10T02:57:04;50.72;;;36.33;;
46563;SDS011;32291;52.010;4.446;2023-05-10T02:58:07;46.70;;;34.42;;
46563;SDS011;32291;52.010;4.446;2023-05-10T02:59:09;42.22;;;32.67;;
46563;SDS011;32291;52.010;4.446;2023-05-10T03:00:12;45.53;;;33.08;;
46563;SDS011;32291;52.010;4.446;2023-05-10T03:01:14;48.95;;;35.65;;
46563;SDS011;32291;52.010;4.446;2023-05-10T03:02:16;44.15;;;34.05;;
46563;SDS011;32291;52.010;4.446;2023-05-10T03:03:18;41.85;;;32.35;;
46563;SDS011;32291;52.010;4.446;2023-05-10T03:04:20;46.72;;;33.53;;
46563;SDS011;32291;52.010;4.446;2023-05-10T03:05:22;43.08;;;34.53;;
46563;SDS011;32291;52.010;4.446;2023-05-10T03:06:24;44.88;;;34.35;;
46563;SDS011;32291;52.010;4.446;2023-05-10T03:07:26;45.03;;;35.72;;
46563;SDS011;32291;52.010;4.446;2023-05-10T03:08:28;43.70;;;35.20;;
46563;SDS011;32291;52.010;4.446;2023-05-10T03:09:31;43.95;;;35.13;;
46563;SDS011;32291;52.010;4.446;2023-05-10T03:10:33;45.88;;;33.60;;
46563;SDS011;32291;52.010;4.446;2023-05-10T03:14:57;41.75;;;31.23;;
46563;SDS011;32291;52.010;4.446;2023-05-10T03:16:27;40.63;;;31.27;;
46563;SDS011;32291;52.010;4.446;2023-05-10T03:17:45;38.03;;;31.25;;
46563;SDS011;32291;52.010;4.446;2023-05-10T03:19:14;41.28;;;30.48;;
46563;SDS011;32291;52.010;4.446;2023-05-10T03:20:31;42.30;;;31.95;;
46563;SDS011;32291;52.010;4.446;2023-05-10T03:21:46;42.25;;;34.05;;
46563;SDS011;32291;52.010;4.446;2023-05-10T03:22:55;47.00;;;34.72;;
46563;SDS011;32291;52.010;4.446;2023-05-10T03:24:07;44.10;;;35.30;;
46563;SDS011;32291;52.010;4.446;2023-05-10T03:25:12;47.53;;;37.50;;
46563;SDS011;32291;52.010;4.446;2023-05-10T03:26:20;41.65;;;31.80;;
46563;SDS011;32291;52.010;4.446;2023-05-10T03:27:28;41.72;;;31.48;;
46563;SDS011;32291;52.010;4.446;2023-05-10T03:28:31;38.63;;;29.98;;
46563;SDS011;32291;52.010;4.446;2023-05-10T03:29:39;44.13;;;35.25;;
46563;SDS011;32291;52.010;4.446;2023-05-10T03:30:42;43.15;;;35.83;;
46563;SDS011;32291;52.010;4.446;2023-05-10T03:31:46;48.67;;;34.53;;
46563;SDS011;32291;52.010;4.446;2023-05-10T03:32:48;47.63;;;35.45;;
46563;SDS011;32291;52.010;4.446;2023-05-10T03:33:50;43.40;;;34.53;;
46563;SDS011;32291;52.010;4.446;2023-05-10T03:34:53;48.83;;;39.22;;
46563;SDS011;32291;52.010;4.446;2023-05-10T03:35:55;43.45;;;36.45;;
46563;SDS011;32291;52.010;4.446;2023-05-10T03:36:56;47.53;;;40.97;;
46563;SDS011;32291;52.010;4.446;2023-05-10T03:37:58;46.58;;;39.00;;
46563;SDS011;32291;52.010;4.446;2023-05-10T03:39:00;52.80;;;39.97;;
46563;SDS011;32291;52.010;4.446;2023-05-10T03:40:02;48.58;;;38.50;;
46563;SDS011;32291;52.010;4.446;2023-05-10T03:41:04;47.40;;;37.47;;
46563;SDS011;32291;52.010;4.446;2023-05-10T03:42:07;48.75;;;34.92;;
46563;SDS011;32291;52.010;4.446;2023-05-10T03:43:08;40.08;;;31.65;;
46563;SDS011;32291;52.010;4.446;2023-05-10T03:44:10;44.90;;;36.13;;
46563;SDS011;32291;52.010;4.446;2023-05-10T03:45:12;45.60;;;35.20;;
46563;SDS011;32291;52.010;4.446;2023-05-10T03:46:14;43.95;;;35.58;;
46563;SDS011;32291;52.010;4.446;2023-05-10T03:47:16;43.03;;;37.67;;
46563;SDS011;32291;52.010;4.446;2023-05-10T03:48:18;45.28;;;36.30;;
46563;SDS011;32291;52.010;4.446;2023-05-10T03:49:20;44.20;;;36.58;;
46563;SDS011;32291;52.010;4.446;2023-05-10T03:50:22;46.67;;;35.50;;
46563;SDS011;32291;52.010;4.446;2023-05-10T03:51:24;45.42;;;36.97;;
46563;SDS011;32291;52.010;4.446;2023-05-10T03:52:28;50.95;;;37.92;;
46563;SDS011;32291;52.010;4.446;2023-05-10T03:53:30;47.05;;;38.83;;
46563;SDS011;32291;52.010;4.446;2023-05-10T03:54:31;48.70;;;39.05;;
46563;SDS011;32291;52.010;4.446;2023-05-10T03:55:33;49.63;;;40.03;;
46563;SDS011;32291;52.010;4.446;2023-05-10T03:56:37;52.15;;;37.95;;
46563;SDS011;32291;52.010;4.446;2023-05-10T03:57:39;50.15;;;36.85;;
46563;SDS011;32291;52.010;4.446;2023-05-10T03:58:41;52.38;;;38.67;;
46563;SDS011;32291;52.010;4.446;2023-05-10T03:59:43;48.33;;;36.15;;
46563;SDS011;32291;52.010;4.446;2023-05-10T04:00:44;50.03;;;37.95;;
46563;SDS011;32291;52.010;4.446;2023-05-10T04:01:46;48.50;;;38.00;;
46563;SDS011;32291;52.010;4.446;2023-05-10T04:02:48;55.13;;;40.17;;
46563;SDS011;32291;52.010;4.446;2023-05-10T04:03:50;51.70;;;37.25;;
46563;SDS011;32291;52.010;4.446;2023-05-10T04:04:52;49.17;;;37.80;;
46563;SDS011;32291;52.010;4.446;2023-05-10T04:06:00;57.30;;;38.33;;
46563;SDS011;32291;52.010;4.446;2023-05-10T04:07:03;49.97;;;35.25;;
46563;SDS011;32291;52.010;4.446;2023-05-10T04:08:04;50.78;;;36.00;;
46563;SDS011;32291;52.010;4.446;2023-05-10T04:09:07;54.10;;;39.35;;
46563;SDS011;32291;52.010;4.446;2023-05-10T04:10:09;51.33;;;37.05;;
46563;SDS011;32291;52.010;4.446;2023-05-10T04:11:12;53.35;;;39.53;;
46563;SDS011;32291;52.010;4.446;2023-05-10T04:12:15;51.72;;;38.25;;
46563;SDS011;32291;52.010;4.446;2023-05-10T04:13:16;53.10;;;35.78;;
46563;SDS011;32291;52.010;4.446;2023-05-10T04:14:18;48.25;;;34.67;;
46563;SDS011;32291;52.010;4.446;2023-05-10T04:15:20;57.28;;;34.85;;
46563;SDS011;32291;52.010;4.446;2023-05-10T04:16:22;53.80;;;35.72;;
46563;SDS011;32291;52.010;4.446;2023-05-10T04:17:23;49.42;;;34.60;;
46563;SDS011;32291;52.010;4.446;2023-05-10T04:18:25;51.42;;;35.08;;
46563;SDS011;32291;52.010;4.446;2023-05-10T04:19:30;54.90;;;37.22;;
46563;SDS011;32291;52.010;4.446;2023-05-10T04:20:32;52.70;;;35.58;;
46563;SDS011;32291;52.010;4.446;2023-05-10T04:21:34;62.17;;;39.50;;
46563;SDS011;32291;52.010;4.446;2023-05-10T04:22:37;59.20;;;39.33;;
46563;SDS011;32291;52.010;4.446;2023-05-10T04:23:39;58.25;;;36.75;;
46563;SDS011;32291;52.010;4.446;2023-05-10T04:24:41;57.20;;;35.63;;
46563;SDS011;32291;52.010;4.446;2023-05-10T04:25:43;53.17;;;33.70;;
46563;SDS011;32291;52.010;4.446;2023-05-10T04:26:44;57.05;;;32.63;;
46563;SDS011;32291;52.010;4.446;2023-05-10T04:27:46;69.22;;;32.97;;
46563;SDS011;32291;52.010;4.446;2023-05-10T04:28:48;59.65;;;30.45;;
46563;SDS011;32291;52.010;4.446;2023-05-10T04:29:49;47.67;;;24.95;;
46563;SDS011;32291;52.010;4.446;2023-05-10T04:30:51;45.63;;;26.52;;
46563;SDS011;32291;52.010;4.446;2023-05-10T04:31:54;48.22;;;26.38;;
46563;SDS011;32291;52.010;4.446;2023-05-10T04:32:57;41.45;;;24.38;;
46563;SDS011;32291;52.010;4.446;2023-05-10T04:33:59;41.13;;;23.23;;
46563;SDS011;32291;52.010;4.446;2023-05-10T04:35:01;36.00;;;21.95;;
46563;SDS011;32291;52.010;4.446;2023-05-10T04:36:04;38.95;;;22.83;;
46563;SDS011;32291;52.010;4.446;2023-05-10T04:37:07;39.67;;;23.65;;
46563;SDS011;32291;52.010;4.446;2023-05-10T04:38:08;34.22;;;21.10;;
46563;SDS011;32291;52.010;4.446;2023-05-10T04:39:11;33.60;;;20.95;;
46563;SDS011;32291;52.010;4.446;2023-05-10T04:40:15;31.90;;;18.55;;
46563;SDS011;32291;52.010;4.446;2023-05-10T04:41:17;31.15;;;20.25;;
46563;SDS011;32291;52.010;4.446;2023-05-10T04:42:18;28.23;;;18.77;;
46563;SDS011;32291;52.010;4.446;2023-05-10T04:43:20;25.65;;;17.38;;
46563;SDS011;32291;52.010;4.446;2023-05-10T04:44:22;28.67;;;16.45;;
46563;SDS011;32291;52.010;4.446;2023-05-10T04:45:23;25.20;;;15.88;;
46563;SDS011;32291;52.010;4.446;2023-05-10T04:46:25;18.80;;;13.00;;
46563;SDS011;32291;52.010;4.446;2023-05-10T04:47:27;22.83;;;13.93;;
46563;SDS011;32291;52.010;4.446;2023-05-10T04:48:28;22.67;;;14.30;;
46563;SDS011;32291;52.010;4.446;2023-05-10T04:49:30;15.98;;;12.00;;
46563;SDS011;32291;52.010;4.446;2023-05-10T04:50:32;17.20;;;11.82;;
46563;SDS011;32291;52.010;4.446;2023-05-10T04:51:34;14.35;;;10.05;;
46563;SDS011;32291;52.010;4.446;2023-05-10T04:52:36;14.13;;;11.13;;
46563;SDS011;32291;52.010;4.446;2023-05-10T04:53:37;13.38;;;10.15;;
46563;SDS011;32291;52.010;4.446;2023-05-10T04:54:39;16.05;;;11.77;;
46563;SDS011;32291;52.010;4.446;2023-05-10T04:55:41;15.80;;;11.40;;
46563;SDS011;32291;52.010;4.446;2023-05-10T04:56:43;14.70;;;10.80;;
46563;SDS011;32291;52.010;4.446;2023-05-10T04:57:44;13.85;;;10.10;;
46563;SDS011;32291;52.010;4.446;2023-05-10T04:58:46;13.90;;;9.95;;
46563;SDS011;32291;52.010;4.446;2023-05-10T04:59:48;13.88;;;10.32;;
46563;SDS011;32291;52.010;4.446;2023-05-10T05:00:49;11.48;;;8.25;;
46563;SDS011;32291;52.010;4.446;2023-05-10T05:01:51;10.10;;;8.70;;
46563;SDS011;32291;52.010;4.446;2023-05-10T05:02:53;9.15;;;7.50;;
46563;SDS011;32291;52.010;4.446;2023-05-10T05:03:55;8.80;;;7.28;;
46563;SDS011;32291;52.010;4.446;2023-05-10T05:04:57;9.57;;;7.38;;
46563;SDS011;32291;52.010;4.446;2023-05-10T05:05:58;7.90;;;7.10;;
46563;SDS011;32291;52.010;4.446;2023-05-10T05:07:00;9.88;;;7.28;;
46563;SDS011;32291;52.010;4.446;2023-05-10T05:08:02;8.13;;;7.05;;
46563;SDS011;32291;52.010;4.446;2023-05-10T05:09:04;8.27;;;7.43;;
46563;SDS011;32291;52.010;4.446;2023-05-10T05:10:07;7.60;;;6.53;;
46563;SDS011;32291;52.010;4.446;2023-05-10T05:11:09;7.93;;;6.60;;
46563;SDS011;32291;52.010;4.446;2023-05-10T05:12:11;6.90;;;6.28;;
46563;SDS011;32291;52.010;4.446;2023-05-10T05:13:15;7.22;;;6.53;;
46563;SDS011;32291;52.010;4.446;2023-05-10T05:14:16;7.22;;;6.43;;
46563;SDS011;32291;52.010;4.446;2023-05-10T05:15:18;8.30;;;6.13;;
46563;SDS011;32291;52.010;4.446;2023-05-10T05:16:19;6.38;;;5.78;;
46563;SDS011;32291;52.010;4.446;2023-05-10T05:17:21;7.85;;;6.55;;
46563;SDS011;32291;52.010;4.446;2023-05-10T05:18:23;7.28;;;6.55;;
46563;SDS011;32291;52.010;4.446;2023-05-10T05:19:24;7.57;;;6.65;;
46563;SDS011;32291;52.010;4.446;2023-05-10T05:20:26;7.40;;;6.65;;
46563;SDS011;32291;52.010;4.446;2023-05-10T05:21:28;9.15;;;7.40;;
46563;SDS011;32291;52.010;4.446;2023-05-10T05:22:30;9.30;;;7.45;;
46563;SDS011;32291;52.010;4.446;2023-05-10T05:23:32;9.75;;;8.18;;
46563;SDS011;32291;52.010;4.446;2023-05-10T05:24:37;7.95;;;7.15;;
46563;SDS011;32291;52.010;4.446;2023-05-10T05:25:41;8.13;;;7.38;;
46563;SDS011;32291;52.010;4.446;2023-05-10T05:26:43;8.05;;;7.25;;
46563;SDS011;32291;52.010;4.446;2023-05-10T05:27:45;8.20;;;7.38;;
46563;SDS011;32291;52.010;4.446;2023-05-10T05:28:46;8.68;;;7.88;;
46563;SDS011;32291;52.010;4.446;2023-05-10T05:29:52;8.98;;;8.07;;
46563;SDS011;32291;52.010;4.446;2023-05-10T05:30:55;9.30;;;7.80;;
46563;SDS011;32291;52.010;4.446;2023-05-10T05:31:56;8.68;;;7.85;;
46563;SDS011;32291;52.010;4.446;2023-05-10T05:32:58;8.98;;;8.07;;
46563;SDS011;32291;52.010;4.446;2023-05-10T05:34:00;8.50;;;7.65;;
46563;SDS011;32291;52.010;4.446;2023-05-10T05:35:02;10.02;;;9.02;;
46563;SDS011;32291;52.010;4.446;2023-05-10T05:36:05;9.32;;;8.43;;
46563;SDS011;32291;52.010;4.446;2023-05-10T05:37:07;9.93;;;8.93;;
46563;SDS011;32291;52.010;4.446;2023-05-10T05:38:13;9.98;;;8.98;;
46563;SDS011;32291;52.010;4.446;2023-05-10T05:39:15;10.35;;;9.35;;
46563;SDS011;32291;52.010;4.446;2023-05-10T05:40:17;9.95;;;8.93;;
46563;SDS011;32291;52.010;4.446;2023-05-10T05:41:19;10.73;;;9.73;;
46563;SDS011;32291;52.010;4.446;2023-05-10T05:42:20;9.82;;;8.95;;
46563;SDS011;32291;52.010;4.446;2023-05-10T05:43:22;10.95;;;9.88;;
46563;SDS011;32291;52.010;4.446;2023-05-10T05:44:24;11.27;;;10.18;;
46563;SDS011;32291;52.010;4.446;2023-05-10T05:45:26;11.18;;;10.18;;
46563;SDS011;32291;52.010;4.446;2023-05-10T05:46:28;11.35;;;10.25;;
46563;SDS011;32291;52.010;4.446;2023-05-10T05:47:29;10.70;;;9.70;;
46563;SDS011;32291;52.010;4.446;2023-05-10T05:48:31;10.82;;;9.68;;
46563;SDS011;32291;52.010;4.446;2023-05-10T05:49:33;10.32;;;9.38;;
46563;SDS011;32291;52.010;4.446;2023-05-10T05:50:35;10.23;;;9.32;;
46563;SDS011;32291;52.010;4.446;2023-05-10T05:51:36;11.32;;;10.32;;
46563;SDS011;32291;52.010;4.446;2023-05-10T05:52:38;11.13;;;10.10;;
46563;SDS011;32291;52.010;4.446;2023-05-10T05:53:40;10.43;;;9.45;;
46563;SDS011;32291;52.010;4.446;2023-05-10T05:54:42;9.93;;;9.02;;
46563;SDS011;32291;52.010;4.446;2023-05-10T05:55:56;10.80;;;9.82;;
46563;SDS011;32291;52.010;4.446;2023-05-10T05:57:00;10.35;;;9.13;;
46563;SDS011;32291;52.010;4.446;2023-05-10T05:58:01;8.63;;;7.88;;
46563;SDS011;32291;52.010;4.446;2023-05-10T05:59:03;9.02;;;8.23;;
46563;SDS011;32291;52.010;4.446;2023-05-10T06:00:05;8.80;;;8.00;;
46563;SDS011;32291;52.010;4.446;2023-05-10T06:01:08;9.20;;;8.40;;
46563;SDS011;32291;52.010;4.446;2023-05-10T06:02:10;8.77;;;8.07;;
46563;SDS011;32291;52.010;4.446;2023-05-10T06:03:12;9.85;;;8.85;;
46563;SDS011;32291;52.010;4.446;2023-05-10T06:04:14;9.35;;;8.55;;
46563;SDS011;32291;52.010;4.446;2023-05-10T06:05:17;9.05;;;8.25;;
46563;SDS011;32291;52.010;4.446;2023-05-10T06:06:19;9.25;;;8.27;;
46563;SDS011;32291;52.010;4.446;2023-05-10T06:07:20;9.60;;;8.77;;
46563;SDS011;32291;52.010;4.446;2023-05-10T06:08:22;9.70;;;8.80;;
46563;SDS011;32291;52.010;4.446;2023-05-10T06:09:23;9.75;;;8.82;;
46563;SDS011;32291;52.010;4.446;2023-05-10T06:10:25;9.43;;;8.52;;
46563;SDS011;32291;52.010;4.446;2023-05-10T06:11:27;8.85;;;8.10;;
46563;SDS011;32291;52.010;4.446;2023-05-10T06:12:29;8.50;;;7.70;;
46563;SDS011;32291;52.010;4.446;2023-05-10T06:13:31;9.10;;;8.27;;
46563;SDS011;32291;52.010;4.446;2023-05-10T06:14:33;8.50;;;7.72;;
46563;SDS011;32291;52.010;4.446;2023-05-10T06:15:35;8.10;;;7.30;;
46563;SDS011;32291;52.010;4.446;2023-05-10T06:16:37;7.07;;;6.47;;
46563;SDS011;32291;52.010;4.446;2023-05-10T06:17:38;7.63;;;7.03;;
46563;SDS011;32291;52.010;4.446;2023-05-10T06:18:40;6.85;;;6.25;;
46563;SDS011;32291;52.010;4.446;2023-05-10T06:19:44;7.60;;;6.90;;
46563;SDS011;32291;52.010;4.446;2023-05-10T06:20:45;7.30;;;6.60;;
46563;SDS011;32291;52.010;4.446;2023-05-10T06:21:47;7.38;;;6.68;;
46563;SDS011;32291;52.010;4.446;2023-05-10T06:22:49;6.93;;;6.30;;
46563;SDS011;32291;52.010;4.446;2023-05-10T06:23:50;7.22;;;6.63;;
46563;SDS011;32291;52.010;4.446;2023-05-10T06:24:52;6.63;;;6.03;;
46563;SDS011;32291;52.010;4.446;2023-05-10T06:25:54;6.78;;;6.25;;
46563;SDS011;32291;52.010;4.446;2023-05-10T06:26:55;6.18;;;5.57;;
46563;SDS011;32291;52.010;4.446;2023-05-10T06:27:57;6.32;;;5.72;;
46563;SDS011;32291;52.010;4.446;2023-05-10T06:28:59;6.53;;;5.72;;
46563;SDS011;32291;52.010;4.446;2023-05-10T06:30:02;6.13;;;5.63;;
46563;SDS011;32291;52.010;4.446;2023-05-10T06:31:04;5.40;;;4.90;;
46563;SDS011;32291;52.010;4.446;2023-05-10T06:32:07;5.13;;;4.72;;